| time (UTC) | temp C | wind direction | speed KPH | gust KPH | rain 1hr cm | rain 24hr cm | rain mn cm | humidity % | barometer mb |
| 20260906123317 | 33 | 191 | 11.3 | 12.9 | 0.00 | 0.00 | 0.00 | 40 | 1008.8 |
| 20260906122815 | 33 | 284 | 9.7 | 12.9 | 0.00 | 0.00 | 0.00 | 39 | 1009.5 |
| 20260906122315 | 33 | 266 | 11.3 | 14.5 | 0.00 | 0.00 | 0.00 | 37 | 1009.1 |
| 20260906121816 | 33 | 169 | 14.5 | 16.1 | 0.00 | 0.00 | 0.00 | 37 | 1008.8 |
| 20260906121315 | 33 | 285 | 6.4 | 11.3 | 0.00 | 0.00 | 0.00 | 38 | 1009.1 |
| 20260906120815 | 33 | 330 | 11.3 | 12.9 | 0.00 | 0.00 | 0.00 | 37 | 1009.1 |
| 20260906120316 | 33 | 339 | 11.3 | 12.9 | 0.00 | 0.00 | 0.00 | 38 | 1009.1 |
| 20260906115817 | 33 | 274 | 9.7 | 14.5 | 0.00 | 0.00 | 0.00 | 37 | 1009.1 |
| 20260906115315 | 33 | 247 | 19.3 | 22.5 | 0.00 | 0.00 | 0.00 | 38 | 1008.8 |
| 20260906114815 | 32 | 189 | 14.5 | 17.7 | 0.00 | 0.00 | 0.00 | 39 | 1008.8 |
| 20260906114316 | 32 | 228 | 14.5 | 22.5 | 0.00 | 0.00 | 0.00 | 41 | 1008.8 |
| 20260906113815 | 32 | 283 | 12.9 | 14.5 | 0.00 | 0.00 | 0.00 | 41 | 1008.8 |
| 20260906113316 | 32 | 259 | 11.3 | 16.1 | 0.00 | 0.00 | 0.00 | 41 | 1009.1 |
| 20260906112815 | 32 | 276 | 19.3 | 24.1 | 0.00 | 0.00 | 0.00 | 40 | 1009.5 |
| 20260906112316 | 32 | 39 | 11.3 | 14.5 | 0.00 | 0.00 | 0.00 | 40 | 1009.5 |
| 20260906111815 | 32 | 263 | 12.9 | 12.9 | 0.00 | 0.00 | 0.00 | 41 | 1009.1 |
| 20260906111315 | 32 | 195 | 9.7 | 14.5 | 0.00 | 0.00 | 0.00 | 40 | 1009.1 |
| 20260906110815 | 33 | 258 | 11.3 | 12.9 | 0.00 | 0.00 | 0.00 | 40 | 1009.1 |
| 20260906110316 | 32 | 317 | 12.9 | 14.5 | 0.00 | 0.00 | 0.00 | 40 | 1009.5 |
| 20260906105815 | 32 | 286 | 11.3 | 14.5 | 0.00 | 0.00 | 0.00 | 40 | 1009.5 |
| 20260906105315 | 32 | 202 | 11.3 | 14.5 | 0.00 | 0.00 | 0.00 | 41 | 1009.5 |
| 20260906104816 | 32 | 271 | 11.3 | 17.7 | 0.00 | 0.00 | 0.00 | 41 | 1009.8 |
| 20260906104315 | 32 | 260 | 12.9 | 14.5 | 0.00 | 0.00 | 0.00 | 43 | 1009.5 |
| 20260906103815 | 31 | 230 | 22.5 | 24.1 | 0.00 | 0.00 | 0.00 | 43 | 1009.8 |
| 20260906103315 | 32 | 233 | 19.3 | 20.9 | 0.00 | 0.00 | 0.00 | 42 | 1009.5 |
| 20260906102815 | 32 | 338 | 14.5 | 17.7 | 0.00 | 0.00 | 0.00 | 42 | 1009.8 |
| 20260906102315 | 32 | 349 | 9.7 | 14.5 | 0.00 | 0.00 | 0.00 | 43 | 1009.8 |
| 20260906101816 | 31 | 181 | 19.3 | 25.7 | 0.00 | 0.00 | 0.00 | 44 | 1009.5 |
| 20260906101317 | 32 | 338 | 12.9 | 16.1 | 0.00 | 0.00 | 0.00 | 42 | 1009.8 |
| 20260906100815 | 32 | 302 | 14.5 | 16.1 | 0.00 | 0.00 | 0.00 | 42 | 1009.8 |
| 20260906100315 | 32 | 302 | 12.9 | 19.3 | 0.00 | 0.00 | 0.00 | 41 | 1009.8 |
| 20260906095815 | 31 | 315 | 12.9 | 17.7 | 0.00 | 0.00 | 0.00 | 43 | 1009.5 |
| 20260906095315 | 31 | 280 | 12.9 | 17.7 | 0.00 | 0.00 | 0.00 | 44 | 1010.2 |
| 20260906094815 | 31 | 169 | 14.5 | 22.5 | 0.00 | 0.00 | 0.00 | 45 | 1010.2 |
| 20260906094316 | 31 | 272 | 25.7 | 27.4 | 0.00 | 0.00 | 0.00 | 46 | 1009.8 |
| 20260906093816 | 31 | 250 | 14.5 | 16.1 | 0.00 | 0.00 | 0.00 | 45 | 1010.2 |
| 20260906093316 | 31 | 262 | 24.1 | 25.7 | 0.00 | 0.00 | 0.00 | 47 | 1009.5 |
| 20260906092815 | 30 | 287 | 12.9 | 14.5 | 0.00 | 0.00 | 0.00 | 48 | 1009.8 |
| 20260906092315 | 31 | 294 | 14.5 | 17.7 | 0.00 | 0.00 | 0.00 | 45 | 1010.5 |
| 20260906091816 | 31 | 237 | 8.0 | 12.9 | 0.00 | 0.00 | 0.00 | 47 | 1009.8 |
| 20260906091316 | 31 | 337 | 12.9 | 16.1 | 0.00 | 0.00 | 0.00 | 46 | 1010.2 |
| 20260906090815 | 31 | 268 | 14.5 | 16.1 | 0.00 | 0.00 | 0.00 | 47 | 1010.2 |
| 20260906090315 | 30 | 323 | 16.1 | 17.7 | 0.00 | 0.00 | 0.00 | 48 | 1009.8 |
| 20260906085816 | 30 | 272 | 14.5 | 17.7 | 0.00 | 0.00 | 0.00 | 49 | 1009.8 |
| 20260906085316 | 31 | 302 | 12.9 | 17.7 | 0.00 | 0.00 | 0.00 | 47 | 1010.2 |
| 20260906084815 | 30 | 304 | 11.3 | 14.5 | 0.00 | 0.00 | 0.00 | 48 | 1010.5 |
| 20260906084315 | 30 | 17 | 25.7 | 27.4 | 0.00 | 0.00 | 0.00 | 48 | 1010.5 |
| 20260906083815 | 30 | 279 | 14.5 | 17.7 | 0.00 | 0.00 | 0.00 | 49 | 1010.5 |
| 20260906083315 | 30 | 294 | 17.7 | 19.3 | 0.00 | 0.00 | 0.00 | 47 | 1010.2 |
| 20260906082816 | 30 | 269 | 12.9 | 14.5 | 0.00 | 0.00 | 0.00 | 50 | 1010.2 |
| 20260906082317 | 30 | 276 | 16.1 | 19.3 | 0.00 | 0.00 | 0.00 | 50 | 1010.5 |
| 20260906081815 | 30 | 191 | 16.1 | 19.3 | 0.00 | 0.00 | 0.00 | 50 | 1010.2 |
| 20260906081315 | 30 | 329 | 19.3 | 22.5 | 0.00 | 0.00 | 0.00 | 51 | 1010.8 |
| 20260906080815 | 30 | 333 | 14.5 | 16.1 | 0.00 | 0.00 | 0.00 | 50 | 1010.2 |
| 20260906080315 | 30 | 313 | 19.3 | 20.9 | 0.00 | 0.00 | 0.00 | 51 | 1010.8 |
| 20260906075818 | 30 | 275 | 12.9 | 14.5 | 0.00 | 0.00 | 0.00 | 50 | 1010.5 |
| 20260906075315 | 30 | 296 | 16.1 | 17.7 | 0.00 | 0.00 | 0.00 | 50 | 1010.5 |
| 20260906074817 | 29 | 10 | 11.3 | 14.5 | 0.00 | 0.00 | 0.00 | 51 | 1010.8 |
| 20260906074315 | 29 | 330 | 9.7 | 14.5 | 0.00 | 0.00 | 0.00 | 52 | 1010.5 |
| 20260906073815 | 28 | 3 | 17.7 | 22.5 | 0.00 | 0.00 | 0.00 | 53 | 1010.2 |
| 20260906073315 | 28 | 272 | 12.9 | 16.1 | 0.00 | 0.00 | 0.00 | 53 | 1010.5 |
| 20260906072816 | 28 | 307 | 12.9 | 16.1 | 0.00 | 0.00 | 0.00 | 54 | 1010.8 |
| 20260906072317 | 28 | 355 | 17.7 | 19.3 | 0.00 | 0.00 | 0.00 | 56 | 1010.8 |
| 20260906071815 | 28 | 289 | 9.7 | 14.5 | 0.00 | 0.00 | 0.00 | 56 | 1011.2 |
| 20260906071315 | 28 | 6 | 14.5 | 17.7 | 0.00 | 0.00 | 0.00 | 56 | 1010.5 |
| 20260906070815 | 28 | 268 | 14.5 | 19.3 | 0.00 | 0.00 | 0.00 | 56 | 1010.8 |
| 20260906070316 | 27 | 214 | 16.1 | 17.7 | 0.00 | 0.00 | 0.00 | 57 | 1010.8 |
| 20260906065818 | 27 | 268 | 16.1 | 17.7 | 0.00 | 0.00 | 0.00 | 58 | 1010.5 |
| 20260906065315 | 28 | 269 | 14.5 | 20.9 | 0.00 | 0.00 | 0.00 | 56 | 1010.8 |
| 20260906064816 | 28 | 336 | 16.1 | 22.5 | 0.00 | 0.00 | 0.00 | 57 | 1011.2 |
| 20260906064315 | 27 | 316 | 14.5 | 17.7 | 0.00 | 0.00 | 0.00 | 59 | 1010.8 |
| 20260906063815 | 27 | 330 | 14.5 | 17.7 | 0.00 | 0.00 | 0.00 | 60 | 1011.2 |
| 20260906063316 | 27 | 285 | 14.5 | 19.3 | 0.00 | 0.00 | 0.00 | 59 | 1010.8 |
| 20260906062316 | 27 | 309 | 11.3 | 16.1 | 0.00 | 0.00 | 0.00 | 61 | 1010.8 |
| 20260906061815 | 26 | 285 | 25.7 | 27.4 | 0.00 | 0.00 | 0.00 | 62 | 1010.5 |
| 20260906061317 | 26 | 260 | 12.9 | 17.7 | 0.00 | 0.00 | 0.00 | 62 | 1010.8 |
| 20260906060815 | 26 | 260 | 12.9 | 17.7 | 0.00 | 0.00 | 0.00 | 62 | 1010.8 |
| 20260906060315 | 26 | 260 | 9.7 | 12.9 | 0.00 | 0.00 | 0.00 | 62 | 1010.8 |
| 20260906055816 | 26 | 32 | 12.9 | 19.3 | 0.00 | 0.00 | 0.00 | 62 | 1011.2 |
| 20260906055315 | 26 | 318 | 11.3 | 16.1 | 0.00 | 0.00 | 0.00 | 63 | 1010.8 |
| 20260906054816 | 26 | 246 | 12.9 | 16.1 | 0.00 | 0.00 | 0.00 | 63 | 1010.8 |
| 20260906054315 | 26 | 290 | 22.5 | 24.1 | 0.00 | 0.00 | 0.00 | 63 | 1010.5 |
| 20260906053816 | 26 | 342 | 14.5 | 19.3 | 0.00 | 0.00 | 0.00 | 62 | 1010.5 |
| 20260906053315 | 26 | 329 | 6.4 | 8.0 | 0.00 | 0.00 | 0.00 | 63 | 1010.5 |
| 20260906052815 | 26 | 325 | 11.3 | 16.1 | 0.00 | 0.00 | 0.00 | 64 | 1010.8 |
| 20260906052316 | 25 | 266 | 6.4 | 8.0 | 0.00 | 0.00 | 0.00 | 65 | 1010.5 |
| 20260906051815 | 25 | 44 | 11.3 | 17.7 | 0.00 | 0.00 | 0.00 | 64 | 1010.8 |
| 20260906051316 | 25 | 284 | 8.0 | 11.3 | 0.00 | 0.00 | 0.00 | 65 | 1010.2 |
| 20260906050816 | 25 | 273 | 9.7 | 12.9 | 0.00 | 0.00 | 0.00 | 66 | 1010.8 |
| 20260906050317 | 25 | 136 | 14.5 | 17.7 | 0.00 | 0.00 | 0.00 | 67 | 1010.8 |
| 20260906045816 | 25 | 338 | 14.5 | 17.7 | 0.00 | 0.00 | 0.00 | 67 | 1010.5 |
| 20260906045315 | 25 | 267 | 4.8 | 8.0 | 0.00 | 0.00 | 0.00 | 66 | 1010.8 |
| 20260906044815 | 25 | 149 | 6.4 | 8.0 | 0.00 | 0.00 | 0.00 | 68 | 1010.5 |
| 20260906044316 | 24 | 274 | 8.0 | 9.7 | 0.00 | 0.00 | 0.00 | 69 | 1010.2 |
| 20260906043818 | 24 | 255 | 9.7 | 12.9 | 0.00 | 0.00 | 0.00 | 70 | 1010.2 |
| 20260906042815 | 23 | 279 | 12.9 | 16.1 | 0.00 | 0.00 | 0.00 | 71 | 1010.5 |
| 20260906042315 | 23 | 272 | 9.7 | 11.3 | 0.00 | 0.00 | 0.00 | 71 | 1010.5 |
| 20260906041815 | 23 | 277 | 9.7 | 12.9 | 0.00 | 0.00 | 0.00 | 71 | 1010.5 |
| 20260906041315 | 23 | 258 | 9.7 | 14.5 | 0.00 | 0.00 | 0.00 | 72 | 1010.2 |
| 20260906040815 | 25 | 210 | 9.7 | 11.3 | 0.00 | 0.00 | 0.00 | 72 | 1010.5 |
| 20260906040317 | 25 | 320 | 14.5 | 19.3 | 0.00 | 0.00 | 0.00 | 73 | 1010.5 |
| 20260906035815 | 25 | 280 | 9.7 | 12.9 | 0.00 | 0.00 | 0.00 | 73 | 1010.8 |
| 20260906035315 | 25 | 283 | 8.0 | 11.3 | 0.00 | 0.00 | 0.00 | 73 | 1010.8 |
| 20260906034815 | 25 | 283 | 11.3 | 14.5 | 0.00 | 0.00 | 0.00 | 74 | 1010.8 |
| 20260906034316 | 25 | 269 | 9.7 | 12.9 | 0.00 | 0.00 | 0.00 | 73 | 1010.5 |
| 20260906033816 | 25 | 293 | 14.5 | 16.1 | 0.00 | 0.00 | 0.00 | 74 | 1010.2 |
| 20260906033315 | 25 | 287 | 12.9 | 16.1 | 0.00 | 0.00 | 0.00 | 73 | 1010.5 |
| 20260906032815 | 25 | 295 | 12.9 | 24.1 | 0.00 | 0.00 | 0.00 | 73 | 1010.2 |
| 20260906032315 | 25 | 280 | 8.0 | 12.9 | 0.00 | 0.00 | 0.00 | 73 | 1010.2 |
| 20260906031815 | 25 | 207 | 17.7 | 17.7 | 0.00 | 0.00 | 0.00 | 73 | 1010.2 |
| 20260906031316 | 25 | 256 | 14.5 | 17.7 | 0.00 | 0.00 | 0.00 | 73 | 1010.2 |
| 20260906030815 | 25 | 284 | 14.5 | 17.7 | 0.00 | 0.00 | 0.00 | 72 | 1010.2 |
| 20260906030316 | 25 | 272 | 17.7 | 24.1 | 0.00 | 0.00 | 0.00 | 72 | 1009.8 |
| 20260906025815 | 25 | 3 | 8.0 | 14.5 | 0.00 | 0.00 | 0.00 | 72 | 1010.5 |
| 20260906025315 | 25 | 264 | 11.3 | 12.9 | 0.00 | 0.00 | 0.00 | 72 | 1009.8 |
| 20260906024815 | 25 | 329 | 9.7 | 12.9 | 0.00 | 0.00 | 0.00 | 73 | 1009.8 |
| 20260906024316 | 25 | 251 | 12.9 | 16.1 | 0.00 | 0.00 | 0.00 | 73 | 1009.8 |
| 20260906023815 | 25 | 333 | 11.3 | 14.5 | 0.00 | 0.00 | 0.00 | 73 | 1010.2 |
| 20260906022816 | 25 | 17 | 8.0 | 11.3 | 0.00 | 0.00 | 0.00 | 73 | 1009.5 |
| 20260906022315 | 25 | 15 | 12.9 | 17.7 | 0.00 | 0.00 | 0.00 | 73 | 1010.2 |
| 20260906021815 | 25 | 321 | 9.7 | 12.9 | 0.00 | 0.00 | 0.00 | 72 | 1010.2 |
| 20260906021316 | 25 | 276 | 11.3 | 14.5 | 0.00 | 0.00 | 0.00 | 72 | 1010.2 |
| 20260906020815 | 25 | 300 | 6.4 | 9.7 | 0.00 | 0.00 | 0.00 | 72 | 1010.2 |
| 20260906020315 | 25 | 323 | 14.5 | 16.1 | 0.00 | 0.00 | 0.00 | 72 | 1010.2 |
| 20260906015815 | 25 | 272 | 11.3 | 12.9 | 0.00 | 0.00 | 0.00 | 72 | 1010.2 |
| 20260906015315 | 25 | 286 | 9.7 | 11.3 | 0.00 | 0.00 | 0.00 | 72 | 1010.2 |
| 20260906014815 | 25 | 272 | 19.3 | 20.9 | 0.00 | 0.00 | 0.00 | 72 | 1010.2 |
| 20260906014315 | 25 | 266 | 16.1 | 19.3 | 0.00 | 0.00 | 0.00 | 72 | 1010.2 |
| 20260906013815 | 25 | 282 | 12.9 | 17.7 | 0.00 | 0.00 | 0.00 | 72 | 1010.5 |
| 20260906013316 | 25 | 255 | 9.7 | 12.9 | 0.00 | 0.00 | 0.00 | 72 | 1010.2 |
| 20260906012816 | 25 | 285 | 14.5 | 17.7 | 0.00 | 0.00 | 0.00 | 73 | 1010.2 |
| 20260906012315 | 25 | 288 | 9.7 | 11.3 | 0.00 | 0.00 | 0.00 | 72 | 1010.2 |
| 20260906011816 | 25 | 295 | 1.6 | 3.2 | 0.00 | 0.00 | 0.00 | 73 | 1010.2 |
| 20260906011319 | 25 | 326 | 8.0 | 9.7 | 0.00 | 0.00 | 0.00 | 73 | 1010.5 |
| 20260906010815 | 25 | 68 | 9.7 | 14.5 | 0.00 | 0.00 | 0.00 | 73 | 1010.2 |
| 20260906010316 | 25 | 316 | 9.7 | 12.9 | 0.00 | 0.00 | 0.00 | 73 | 1010.2 |
| 20260906005816 | 25 | 318 | 9.7 | 12.9 | 0.00 | 0.00 | 0.00 | 73 | 1010.2 |
| 20260906005317 | 25 | 279 | 12.9 | 14.5 | 0.00 | 0.00 | 0.00 | 73 | 1010.2 |
| 20260906004815 | 25 | 285 | 12.9 | 16.1 | 0.00 | 0.00 | 0.00 | 73 | 1010.2 |
| 20260906004315 | 25 | 246 | 9.7 | 12.9 | 0.00 | 0.00 | 0.00 | 73 | 1009.8 |
| 20260906003815 | 25 | 287 | 11.3 | 14.5 | 0.00 | 0.00 | 0.00 | 73 | 1009.8 |
| 20260906003315 | 25 | 313 | 11.3 | 14.5 | 0.00 | 0.00 | 0.00 | 73 | 1009.8 |
| 20260906002815 | 25 | 238 | 12.9 | 17.7 | 0.00 | 0.00 | 0.00 | 73 | 1010.5 |
| 20260906002315 | 25 | 264 | 12.9 | 16.1 | 0.00 | 0.00 | 0.00 | 73 | 1010.2 |
| 20260906001816 | 25 | 279 | 11.3 | 12.9 | 0.00 | 0.00 | 0.00 | 73 | 1010.2 |
| 20260906001316 | 25 | 284 | 14.5 | 16.1 | 0.00 | 0.00 | 0.00 | 73 | 1010.5 |
| 20260906000816 | 25 | 280 | 14.5 | 19.3 | 0.00 | 0.00 | 0.00 | 72 | 1010.2 |
| 20260906000318 | 25 | 252 | 11.3 | 16.1 | 0.00 | 0.00 | 0.00 | 73 | 1009.8 |
| 20260905235816 | 25 | 296 | 12.9 | 14.5 | 0.00 | 0.00 | 0.00 | 72 | 1010.5 |
| 20260905235315 | 25 | 37 | 11.3 | 14.5 | 0.00 | 0.00 | 0.00 | 72 | 1010.2 |
| 20260905234816 | 25 | 292 | 12.9 | 14.5 | 0.00 | 0.00 | 0.00 | 72 | 1009.8 |
| 20260905234315 | 25 | 294 | 12.9 | 14.5 | 0.00 | 0.00 | 0.00 | 72 | 1010.2 |
| 20260905233815 | 25 | 275 | 12.9 | 16.1 | 0.00 | 0.00 | 0.00 | 72 | 1010.5 |
| 20260905233315 | 25 | 305 | 12.9 | 16.1 | 0.00 | 0.00 | 0.00 | 71 | 1010.2 |
| 20260905232816 | 25 | 293 | 9.7 | 14.5 | 0.00 | 0.00 | 0.00 | 71 | 1010.2 |
| 20260905232316 | 25 | 287 | 9.7 | 14.5 | 0.00 | 0.00 | 0.00 | 71 | 1009.8 |
| 20260905231816 | 25 | 9 | 14.5 | 16.1 | 0.00 | 0.00 | 0.00 | 71 | 1010.2 |
| 20260905231315 | 25 | 284 | 12.9 | 16.1 | 0.00 | 0.00 | 0.00 | 71 | 1010.2 |
| 20260905230815 | 25 | 304 | 9.7 | 11.3 | 0.00 | 0.00 | 0.00 | 71 | 1010.5 |
| 20260905230316 | 25 | 249 | 9.7 | 11.3 | 0.00 | 0.00 | 0.00 | 71 | 1010.2 |
| 20260905225816 | 25 | 359 | 6.4 | 8.0 | 0.00 | 0.00 | 0.00 | 71 | 1010.2 |
| 20260905225315 | 25 | 272 | 8.0 | 9.7 | 0.00 | 0.00 | 0.00 | 71 | 1010.2 |
| 20260905224815 | 25 | 284 | 9.7 | 12.9 | 0.00 | 0.00 | 0.00 | 70 | 1009.8 |
| 20260905224315 | 25 | 309 | 17.7 | 22.5 | 0.00 | 0.00 | 0.00 | 70 | 1010.2 |
| 20260905223816 | 25 | 255 | 6.4 | 9.7 | 0.00 | 0.00 | 0.00 | 70 | 1009.8 |
| 20260905222815 | 25 | 286 | 16.1 | 19.3 | 0.00 | 0.00 | 0.00 | 70 | 1009.8 |
| 20260905222316 | 25 | 354 | 12.9 | 14.5 | 0.00 | 0.00 | 0.00 | 70 | 1009.8 |
| 20260905221816 | 25 | 283 | 12.9 | 16.1 | 0.00 | 0.00 | 0.00 | 70 | 1010.5 |
| 20260905221315 | 25 | 254 | 9.7 | 12.9 | 0.00 | 0.00 | 0.00 | 70 | 1010.2 |
| 20260905220816 | 25 | 285 | 9.7 | 12.9 | 0.00 | 0.00 | 0.00 | 70 | 1010.2 |
| 20260905220315 | 25 | 269 | 16.1 | 17.7 | 0.00 | 0.00 | 0.00 | 70 | 1010.5 |
| 20260905215815 | 25 | 10 | 11.3 | 17.7 | 0.00 | 0.00 | 0.00 | 70 | 1010.2 |
| 20260905215315 | 25 | 289 | 9.7 | 14.5 | 0.00 | 0.00 | 0.00 | 70 | 1010.2 |
| 20260905214815 | 25 | 356 | 11.3 | 16.1 | 0.00 | 0.00 | 0.00 | 70 | 1010.5 |
| 20260905214315 | 25 | 26 | 12.9 | 16.1 | 0.00 | 0.00 | 0.00 | 70 | 1010.5 |
| 20260905213817 | 25 | 323 | 11.3 | 14.5 | 0.00 | 0.00 | 0.00 | 71 | 1010.2 |
| 20260905213315 | 25 | 298 | 16.1 | 17.7 | 0.00 | 0.00 | 0.00 | 71 | 1010.2 |
| 20260905212815 | 26 | 284 | 16.1 | 22.5 | 0.00 | 0.00 | 0.00 | 71 | 1010.2 |
| 20260905212316 | 26 | 275 | 12.9 | 19.3 | 0.00 | 0.00 | 0.00 | 71 | 1010.8 |
| 20260905211817 | 26 | 338 | 17.7 | 22.5 | 0.00 | 0.00 | 0.00 | 70 | 1010.5 |
| 20260905211315 | 26 | 290 | 14.5 | 17.7 | 0.00 | 0.00 | 0.00 | 70 | 1010.5 |
| 20260905210816 | 26 | 281 | 9.7 | 12.9 | 0.00 | 0.00 | 0.00 | 70 | 1010.8 |
| 20260905210316 | 26 | 30 | 4.8 | 8.0 | 0.00 | 0.00 | 0.00 | 69 | 1010.8 |
| 20260905205816 | 26 | 6 | 11.3 | 12.9 | 0.00 | 0.00 | 0.00 | 69 | 1010.8 |
| 20260905205315 | 26 | 351 | 22.5 | 25.7 | 0.00 | 0.00 | 0.00 | 68 | 1011.2 |
| 20260905204819 | 26 | 276 | 9.7 | 11.3 | 0.00 | 0.00 | 0.00 | 67 | 1010.8 |
| 20260905204315 | 26 | 299 | 9.7 | 12.9 | 0.00 | 0.00 | 0.00 | 67 | 1010.8 |
| 20260905203815 | 26 | 229 | 9.7 | 11.3 | 0.00 | 0.00 | 0.00 | 68 | 1010.8 |
| 20260905203317 | 26 | 277 | 11.3 | 14.5 | 0.00 | 0.00 | 0.00 | 68 | 1011.2 |
| 20260905202816 | 26 | 297 | 8.0 | 9.7 | 0.00 | 0.00 | 0.00 | 68 | 1010.5 |
| 20260905202316 | 26 | 300 | 12.9 | 14.5 | 0.00 | 0.00 | 0.00 | 68 | 1011.2 |
| 20260905201815 | 26 | 324 | 9.7 | 14.5 | 0.00 | 0.00 | 0.00 | 67 | 1010.8 |
| 20260905201316 | 26 | 259 | 4.8 | 4.8 | 0.00 | 0.00 | 0.00 | 67 | 1010.5 |
| 20260905200815 | 26 | 13 | 11.3 | 14.5 | 0.00 | 0.00 | 0.00 | 67 | 1010.5 |
| 20260905200315 | 26 | 354 | 8.0 | 11.3 | 0.00 | 0.00 | 0.00 | 66 | 1010.8 |
| 20260905195815 | 26 | 324 | 9.7 | 12.9 | 0.00 | 0.00 | 0.00 | 66 | 1010.2 |
| 20260905195316 | 26 | 274 | 6.4 | 8.0 | 0.00 | 0.00 | 0.00 | 66 | 1010.8 |
| 20260905194816 | 27 | 288 | 12.9 | 16.1 | 0.00 | 0.00 | 0.00 | 66 | 1010.8 |
| 20260905194315 | 27 | 334 | 12.9 | 0.0 | 0.00 | 0.00 | 0.00 | 66 | 1010.5 |
| 20260905193816 | 27 | 274 | 9.7 | 12.9 | 0.00 | 0.00 | 0.00 | 66 | 1010.8 |
| 20260905193315 | 27 | 8 | 6.4 | 9.7 | 0.00 | 0.00 | 0.00 | 66 | 1010.8 |
| 20260905191816 | 27 | 259 | 12.9 | 17.7 | 0.00 | 0.00 | 0.00 | 65 | 1010.5 |
| 20260905191316 | 27 | 1 | 11.3 | 14.5 | 0.00 | 0.00 | 0.00 | 65 | 1010.5 |
| 20260905190815 | 27 | 244 | 16.1 | 19.3 | 0.00 | 0.00 | 0.00 | 65 | 1010.5 |
| 20260905190315 | 27 | 349 | 16.1 | 17.7 | 0.00 | 0.00 | 0.00 | 64 | 1010.8 |
| 20260905185816 | 27 | 172 | 9.7 | 12.9 | 0.00 | 0.00 | 0.00 | 64 | 1010.5 |
| 20260905185315 | 27 | 291 | 8.0 | 11.3 | 0.00 | 0.00 | 0.00 | 63 | 1010.2 |
| 20260905184315 | 27 | 346 | 11.3 | 12.9 | 0.00 | 0.00 | 0.00 | 63 | 1009.8 |
| 20260905183816 | 27 | 28 | 11.3 | 14.5 | 0.00 | 0.00 | 0.00 | 63 | 1010.2 |
| 20260905183316 | 28 | 320 | 9.7 | 12.9 | 0.00 | 0.00 | 0.00 | 62 | 1010.5 |
| 20260905182815 | 28 | 273 | 9.7 | 12.9 | 0.00 | 0.00 | 0.00 | 62 | 1010.2 |
| 20260905182315 | 28 | 216 | 14.5 | 19.3 | 0.00 | 0.00 | 0.00 | 62 | 1010.5 |
| 20260905181815 | 28 | 354 | 12.9 | 14.5 | 0.00 | 0.00 | 0.00 | 61 | 1010.2 |
| 20260905181315 | 28 | 272 | 11.3 | 14.5 | 0.00 | 0.00 | 0.00 | 61 | 1010.8 |
| 20260905180815 | 28 | 300 | 11.3 | 16.1 | 0.00 | 0.00 | 0.00 | 61 | 1010.2 |
| 20260905180315 | 28 | 320 | 9.7 | 12.9 | 0.00 | 0.00 | 0.00 | 60 | 1010.5 |
| 20260905175325 | 28 | 320 | 6.4 | 8.0 | 0.00 | 0.00 | 0.00 | 60 | 1010.2 |
| 20260905174816 | 28 | 353 | 11.3 | 11.3 | 0.00 | 0.00 | 0.00 | 60 | 1010.5 |
| 20260905174316 | 28 | 252 | 12.9 | 17.7 | 0.00 | 0.00 | 0.00 | 59 | 1011.2 |
| 20260905173815 | 29 | 285 | 8.0 | 11.3 | 0.00 | 0.00 | 0.00 | 59 | 1010.5 |
| 20260905173318 | 29 | 267 | 9.7 | 14.5 | 0.00 | 0.00 | 0.00 | 59 | 1010.8 |
| 20260905172817 | 29 | 287 | 11.3 | 14.5 | 0.00 | 0.00 | 0.00 | 59 | 1010.8 |
| 20260905172315 | 29 | 274 | 14.5 | 19.3 | 0.00 | 0.00 | 0.00 | 58 | 1010.5 |
| 20260905171815 | 29 | 25 | 9.7 | 14.5 | 0.00 | 0.00 | 0.00 | 58 | 1010.2 |
| 20260905171316 | 30 | 348 | 12.9 | 14.5 | 0.00 | 0.00 | 0.00 | 58 | 1010.2 |
| 20260905170815 | 30 | 245 | 11.3 | 16.1 | 0.00 | 0.00 | 0.00 | 58 | 1010.2 |
| 20260905170315 | 30 | 288 | 9.7 | 12.9 | 0.00 | 0.00 | 0.00 | 57 | 1010.2 |
| 20260905165815 | 30 | 304 | 8.0 | 9.7 | 0.00 | 0.00 | 0.00 | 57 | 1009.8 |
| 20260905165315 | 30 | 346 | 9.7 | 12.9 | 0.00 | 0.00 | 0.00 | 56 | 1010.2 |
| 20260905164815 | 30 | 290 | 17.7 | 19.3 | 0.00 | 0.00 | 0.00 | 55 | 1010.2 |
| 20260905164317 | 30 | 339 | 11.3 | 0.0 | 0.00 | 0.00 | 0.00 | 54 | 1010.2 |
| 20260905163815 | 30 | 24 | 11.3 | 14.5 | 0.00 | 0.00 | 0.00 | 54 | 1009.8 |
| 20260905163315 | 31 | 304 | 12.9 | 14.5 | 0.00 | 0.00 | 0.00 | 52 | 1009.5 |
| 20260905162816 | 31 | 360 | 14.5 | 19.3 | 0.00 | 0.00 | 0.00 | 51 | 1009.8 |
| 20260905162317 | 31 | 299 | 11.3 | 14.5 | 0.00 | 0.00 | 0.00 | 51 | 1009.8 |
| 20260905161816 | 31 | 323 | 11.3 | 12.9 | 0.00 | 0.00 | 0.00 | 50 | 1009.5 |
| 20260905161315 | 31 | 329 | 9.7 | 12.9 | 0.00 | 0.00 | 0.00 | 48 | 1009.5 |
| 20260905160816 | 31 | 327 | 11.3 | 16.1 | 0.00 | 0.00 | 0.00 | 47 | 1009.5 |
| 20260905160315 | 32 | 287 | 9.7 | 14.5 | 0.00 | 0.00 | 0.00 | 47 | 1009.5 |
| 20260905155815 | 32 | 25 | 12.9 | 17.7 | 0.00 | 0.00 | 0.00 | 47 | 1009.5 |
| 20260905155316 | 32 | 233 | 12.9 | 17.7 | 0.00 | 0.00 | 0.00 | 47 | 1009.8 |
| 20260905154821 | 32 | 359 | 8.0 | 12.9 | 0.00 | 0.00 | 0.00 | 46 | 1009.8 |
| 20260905154316 | 33 | 286 | 11.3 | 14.5 | 0.00 | 0.00 | 0.00 | 43 | 1009.1 |
| 20260905153816 | 33 | 291 | 6.4 | 6.4 | 0.00 | 0.00 | 0.00 | 40 | 1009.5 |
| 20260905153318 | 33 | 318 | 9.7 | 9.7 | 0.00 | 0.00 | 0.00 | 39 | 1009.5 |
| 20260905152815 | 33 | 331 | 8.0 | 9.7 | 0.00 | 0.00 | 0.00 | 38 | 1009.5 |
| 20260905152315 | 34 | 297 | 11.3 | 14.5 | 0.00 | 0.00 | 0.00 | 37 | 1009.1 |
| 20260905151816 | 34 | 203 | 14.5 | 17.7 | 0.00 | 0.00 | 0.00 | 36 | 1009.5 |
| 20260905151316 | 35 | 345 | 11.3 | 16.1 | 0.00 | 0.00 | 0.00 | 35 | 1009.1 |
| 20260905150817 | 35 | 17 | 11.3 | 16.1 | 0.00 | 0.00 | 0.00 | 35 | 1009.1 |
| 20260905150319 | 35 | 3 | 8.0 | 11.3 | 0.00 | 0.00 | 0.00 | 34 | 1009.5 |
| 20260905145816 | 35 | 277 | 16.1 | 20.9 | 0.00 | 0.00 | 0.00 | 34 | 1009.5 |
| 20260905145315 | 35 | 351 | 8.0 | 9.7 | 0.00 | 0.00 | 0.00 | 34 | 1009.8 |
| 20260905144816 | 35 | 345 | 8.0 | 9.7 | 0.00 | 0.00 | 0.00 | 34 | 1009.5 |
| 20260905144315 | 35 | 255 | 11.3 | 16.1 | 0.00 | 0.00 | 0.00 | 34 | 1009.1 |
| 20260905143816 | 35 | 266 | 11.3 | 16.1 | 0.00 | 0.00 | 0.00 | 34 | 1009.5 |
| 20260905143315 | 36 | 274 | 9.7 | 14.5 | 0.00 | 0.00 | 0.00 | 34 | 1009.5 |
| 20260905142815 | 36 | 279 | 11.3 | 16.1 | 0.00 | 0.00 | 0.00 | 34 | 1009.1 |
| 20260905142316 | 35 | 334 | 9.7 | 14.5 | 0.00 | 0.00 | 0.00 | 34 | 1009.1 |
| 20260905141816 | 36 | 213 | 12.9 | 16.1 | 0.00 | 0.00 | 0.00 | 34 | 1009.1 |
| 20260905141316 | 36 | 279 | 8.0 | 11.3 | 0.00 | 0.00 | 0.00 | 33 | 1009.1 |
| 20260905140815 | 36 | 22 | 16.1 | 19.3 | 0.00 | 0.00 | 0.00 | 34 | 1009.1 |
| 20260905140318 | 37 | 240 | 14.5 | 14.5 | 0.00 | 0.00 | 0.00 | 31 | 1009.1 |
| 20260905135816 | 37 | 328 | 9.7 | 11.3 | 0.00 | 0.00 | 0.00 | 30 | 1009.1 |
| 20260905134816 | 37 | 356 | 8.0 | 0.0 | 0.00 | 0.00 | 0.00 | 28 | 1009.1 |
| 20260905134315 | 37 | 11 | 8.0 | 0.0 | 0.00 | 0.00 | 0.00 | 29 | 1009.5 |
| 20260905133817 | 37 | 276 | 12.9 | 16.1 | 0.00 | 0.00 | 0.00 | 29 | 1009.1 |
| 20260905133315 | 38 | 342 | 11.3 | 14.5 | 0.00 | 0.00 | 0.00 | 29 | 1009.1 |
| 20260905132816 | 38 | 18 | 8.0 | 11.3 | 0.00 | 0.00 | 0.00 | 29 | 1009.1 |
| 20260905132315 | 38 | 349 | 8.0 | 11.3 | 0.00 | 0.00 | 0.00 | 28 | 1009.5 |
| 20260905131815 | 38 | 140 | 6.4 | 8.0 | 0.00 | 0.00 | 0.00 | 29 | 1008.8 |
| 20260905131315 | 37 | 305 | 6.4 | 9.7 | 0.00 | 0.00 | 0.00 | 30 | 1009.1 |
| 20260905130815 | 38 | 298 | 9.7 | 14.5 | 0.00 | 0.00 | 0.00 | 29 | 1009.1 |
| 20260905130316 | 38 | 307 | 4.8 | 6.4 | 0.00 | 0.00 | 0.00 | 29 | 1009.1 |
| 20260905125815 | 38 | 194 | 6.4 | 11.3 | 0.00 | 0.00 | 0.00 | 29 | 1009.1 |
| 20260905125315 | 39 | 2 | 6.4 | 9.7 | 0.00 | 0.00 | 0.00 | 29 | 1009.5 |
| 20260905124816 | 38 | 213 | 9.7 | 12.9 | 0.00 | 0.00 | 0.00 | 29 | 1009.1 |
| 20260905124315 | 38 | 284 | 14.5 | 17.7 | 0.00 | 0.00 | 0.00 | 29 | 1009.1 |
| 20260905123816 | 38 | 12 | 8.0 | 11.3 | 0.00 | 0.00 | 0.00 | 30 | 1009.5 |